sensor_id;sensor_type;location;lat;lon;timestamp;P1;durP1;ratioP1;P2;durP2;ratioP2
33104;SDS011;19476;51.448;6.674;2022-11-15T00:02:12;6.65;;;3.75;;
33104;SDS011;19476;51.448;6.674;2022-11-15T00:04:37;8.80;;;3.67;;
33104;SDS011;19476;51.448;6.674;2022-11-15T00:07:03;7.63;;;4.25;;
33104;SDS011;19476;51.448;6.674;2022-11-15T00:09:29;7.57;;;4.30;;
33104;SDS011;19476;51.448;6.674;2022-11-15T00:11:55;8.82;;;4.63;;
33104;SDS011;19476;51.448;6.674;2022-11-15T00:14:21;7.65;;;3.97;;
33104;SDS011;19476;51.448;6.674;2022-11-15T00:16:46;8.00;;;4.00;;
33104;SDS011;19476;51.448;6.674;2022-11-15T00:19:12;8.02;;;4.55;;
33104;SDS011;19476;51.448;6.674;2022-11-15T00:21:38;7.97;;;3.97;;
33104;SDS011;19476;51.448;6.674;2022-11-15T00:24:04;7.72;;;4.00;;
33104;SDS011;19476;51.448;6.674;2022-11-15T00:26:30;6.70;;;3.40;;
33104;SDS011;19476;51.448;6.674;2022-11-15T00:28:56;7.43;;;3.95;;
33104;SDS011;19476;51.448;6.674;2022-11-15T00:31:21;5.43;;;3.45;;
33104;SDS011;19476;51.448;6.674;2022-11-15T00:33:48;7.70;;;3.97;;
33104;SDS011;19476;51.448;6.674;2022-11-15T00:36:14;6.57;;;3.53;;
33104;SDS011;19476;51.448;6.674;2022-11-15T00:38:40;7.63;;;3.60;;
33104;SDS011;19476;51.448;6.674;2022-11-15T00:41:06;7.63;;;3.33;;
33104;SDS011;19476;51.448;6.674;2022-11-15T00:43:33;7.20;;;3.50;;
33104;SDS011;19476;51.448;6.674;2022-11-15T00:45:59;7.38;;;4.47;;
33104;SDS011;19476;51.448;6.674;2022-11-15T00:48:25;7.20;;;3.55;;
33104;SDS011;19476;51.448;6.674;2022-11-15T00:50:51;7.28;;;3.40;;
33104;SDS011;19476;51.448;6.674;2022-11-15T00:53:17;6.28;;;3.78;;
33104;SDS011;19476;51.448;6.674;2022-11-15T00:55:43;6.75;;;3.58;;
33104;SDS011;19476;51.448;6.674;2022-11-15T00:58:09;7.30;;;3.53;;
33104;SDS011;19476;51.448;6.674;2022-11-15T01:00:35;5.97;;;3.50;;
33104;SDS011;19476;51.448;6.674;2022-11-15T01:03:01;8.02;;;3.92;;
33104;SDS011;19476;51.448;6.674;2022-11-15T01:05:27;7.60;;;3.65;;
33104;SDS011;19476;51.448;6.674;2022-11-15T01:07:54;8.23;;;4.25;;
33104;SDS011;19476;51.448;6.674;2022-11-15T01:10:21;10.10;;;4.35;;
33104;SDS011;19476;51.448;6.674;2022-11-15T01:12:47;7.13;;;3.80;;
33104;SDS011;19476;51.448;6.674;2022-11-15T01:15:14;7.88;;;4.13;;
33104;SDS011;19476;51.448;6.674;2022-11-15T01:17:39;8.20;;;4.50;;
33104;SDS011;19476;51.448;6.674;2022-11-15T01:20:05;8.85;;;4.05;;
33104;SDS011;19476;51.448;6.674;2022-11-15T01:22:32;6.47;;;3.70;;
33104;SDS011;19476;51.448;6.674;2022-11-15T01:24:57;6.95;;;3.45;;
33104;SDS011;19476;51.448;6.674;2022-11-15T01:27:23;6.97;;;4.38;;
33104;SDS011;19476;51.448;6.674;2022-11-15T01:29:49;6.10;;;3.67;;
33104;SDS011;19476;51.448;6.674;2022-11-15T01:32:15;8.15;;;4.03;;
33104;SDS011;19476;51.448;6.674;2022-11-15T01:34:41;6.55;;;3.70;;
33104;SDS011;19476;51.448;6.674;2022-11-15T01:37:07;6.15;;;3.75;;
33104;SDS011;19476;51.448;6.674;2022-11-15T01:39:33;6.93;;;3.72;;
33104;SDS011;19476;51.448;6.674;2022-11-15T01:41:58;7.78;;;3.80;;
33104;SDS011;19476;51.448;6.674;2022-11-15T01:47:00;6.55;;;3.10;;
33104;SDS011;19476;51.448;6.674;2022-11-15T01:49:30;5.45;;;2.97;;
33104;SDS011;19476;51.448;6.674;2022-11-15T01:51:58;5.85;;;3.25;;
33104;SDS011;19476;51.448;6.674;2022-11-15T01:54:26;8.05;;;3.50;;
33104;SDS011;19476;51.448;6.674;2022-11-15T01:56:54;6.40;;;3.70;;
33104;SDS011;19476;51.448;6.674;2022-11-15T01:59:29;4.68;;;2.83;;
33104;SDS011;19476;51.448;6.674;2022-11-15T02:01:56;6.53;;;3.60;;
33104;SDS011;19476;51.448;6.674;2022-11-15T02:04:26;6.60;;;3.10;;
33104;SDS011;19476;51.448;6.674;2022-11-15T02:06:53;5.70;;;3.25;;
33104;SDS011;19476;51.448;6.674;2022-11-15T02:09:19;4.88;;;2.50;;
33104;SDS011;19476;51.448;6.674;2022-11-15T02:11:45;5.38;;;2.45;;
33104;SDS011;19476;51.448;6.674;2022-11-15T02:14:13;5.35;;;3.15;;
33104;SDS011;19476;51.448;6.674;2022-11-15T02:16:53;7.30;;;3.30;;
33104;SDS011;19476;51.448;6.674;2022-11-15T02:41:23;5.40;;;2.95;;
33104;SDS011;19476;51.448;6.674;2022-11-15T02:46:40;5.25;;;3.15;;
33104;SDS011;19476;51.448;6.674;2022-11-15T02:49:29;5.30;;;3.00;;
33104;SDS011;19476;51.448;6.674;2022-11-15T02:51:57;5.93;;;3.00;;
33104;SDS011;19476;51.448;6.674;2022-11-15T02:54:28;6.03;;;3.60;;
33104;SDS011;19476;51.448;6.674;2022-11-15T02:56:58;6.53;;;3.70;;
33104;SDS011;19476;51.448;6.674;2022-11-15T02:59:34;6.32;;;3.35;;
33104;SDS011;19476;51.448;6.674;2022-11-15T03:10:46;5.47;;;3.13;;
33104;SDS011;19476;51.448;6.674;2022-11-15T03:19:04;5.90;;;3.42;;
33104;SDS011;19476;51.448;6.674;2022-11-15T03:21:44;7.88;;;3.90;;
33104;SDS011;19476;51.448;6.674;2022-11-15T03:24:13;7.00;;;3.83;;
33104;SDS011;19476;51.448;6.674;2022-11-15T03:26:41;6.63;;;3.35;;
33104;SDS011;19476;51.448;6.674;2022-11-15T03:29:14;7.68;;;3.45;;
33104;SDS011;19476;51.448;6.674;2022-11-15T03:31:46;7.82;;;3.88;;
33104;SDS011;19476;51.448;6.674;2022-11-15T03:37:22;6.22;;;3.33;;
33104;SDS011;19476;51.448;6.674;2022-11-15T03:39:56;6.47;;;3.83;;
33104;SDS011;19476;51.448;6.674;2022-11-15T03:42:27;6.25;;;3.53;;
33104;SDS011;19476;51.448;6.674;2022-11-15T03:45:15;5.75;;;3.45;;
33104;SDS011;19476;51.448;6.674;2022-11-15T03:47:55;5.63;;;3.35;;
33104;SDS011;19476;51.448;6.674;2022-11-15T03:50:26;5.60;;;2.80;;
33104;SDS011;19476;51.448;6.674;2022-11-15T03:52:53;7.10;;;3.83;;
33104;SDS011;19476;51.448;6.674;2022-11-15T03:55:20;7.10;;;3.78;;
33104;SDS011;19476;51.448;6.674;2022-11-15T03:57:50;6.20;;;3.35;;
33104;SDS011;19476;51.448;6.674;2022-11-15T04:00:18;8.90;;;3.97;;
33104;SDS011;19476;51.448;6.674;2022-11-15T04:02:44;7.28;;;3.72;;
33104;SDS011;19476;51.448;6.674;2022-11-15T04:05:10;6.47;;;3.70;;
33104;SDS011;19476;51.448;6.674;2022-11-15T04:07:36;6.18;;;3.20;;
33104;SDS011;19476;51.448;6.674;2022-11-15T04:10:02;7.03;;;3.92;;
33104;SDS011;19476;51.448;6.674;2022-11-15T04:12:32;5.72;;;3.33;;
33104;SDS011;19476;51.448;6.674;2022-11-15T04:17:33;6.35;;;3.33;;
33104;SDS011;19476;51.448;6.674;2022-11-15T04:20:00;6.53;;;3.38;;
33104;SDS011;19476;51.448;6.674;2022-11-15T04:22:45;5.30;;;2.88;;
33104;SDS011;19476;51.448;6.674;2022-11-15T04:25:30;5.38;;;2.90;;
33104;SDS011;19476;51.448;6.674;2022-11-15T04:27:55;4.97;;;3.00;;
33104;SDS011;19476;51.448;6.674;2022-11-15T04:30:21;8.65;;;3.30;;
33104;SDS011;19476;51.448;6.674;2022-11-15T04:32:47;5.43;;;3.00;;
33104;SDS011;19476;51.448;6.674;2022-11-15T04:35:13;5.40;;;3.15;;
33104;SDS011;19476;51.448;6.674;2022-11-15T04:37:38;6.95;;;3.50;;
33104;SDS011;19476;51.448;6.674;2022-11-15T04:40:04;6.90;;;3.40;;
33104;SDS011;19476;51.448;6.674;2022-11-15T04:42:30;4.70;;;2.92;;
33104;SDS011;19476;51.448;6.674;2022-11-15T04:44:56;5.97;;;2.97;;
33104;SDS011;19476;51.448;6.674;2022-11-15T04:47:22;6.00;;;3.20;;
33104;SDS011;19476;51.448;6.674;2022-11-15T04:49:48;5.35;;;3.00;;
33104;SDS011;19476;51.448;6.674;2022-11-15T04:52:13;5.82;;;2.92;;
33104;SDS011;19476;51.448;6.674;2022-11-15T04:54:40;7.40;;;3.85;;
33104;SDS011;19476;51.448;6.674;2022-11-15T04:57:07;6.50;;;3.42;;
33104;SDS011;19476;51.448;6.674;2022-11-15T04:59:32;5.60;;;3.28;;
33104;SDS011;19476;51.448;6.674;2022-11-15T05:01:58;7.28;;;3.33;;
33104;SDS011;19476;51.448;6.674;2022-11-15T05:04:24;4.45;;;2.67;;
33104;SDS011;19476;51.448;6.674;2022-11-15T05:06:50;5.75;;;3.15;;
33104;SDS011;19476;51.448;6.674;2022-11-15T05:09:17;5.63;;;2.92;;
33104;SDS011;19476;51.448;6.674;2022-11-15T05:11:44;5.13;;;3.00;;
33104;SDS011;19476;51.448;6.674;2022-11-15T05:14:11;5.38;;;3.00;;
33104;SDS011;19476;51.448;6.674;2022-11-15T05:16:37;5.05;;;2.70;;
33104;SDS011;19476;51.448;6.674;2022-11-15T05:19:03;7.50;;;3.90;;
33104;SDS011;19476;51.448;6.674;2022-11-15T05:21:30;4.30;;;2.67;;
33104;SDS011;19476;51.448;6.674;2022-11-15T05:23:56;4.70;;;3.03;;
33104;SDS011;19476;51.448;6.674;2022-11-15T05:26:22;5.88;;;2.70;;
33104;SDS011;19476;51.448;6.674;2022-11-15T05:28:51;5.03;;;3.05;;
33104;SDS011;19476;51.448;6.674;2022-11-15T05:31:20;7.55;;;3.08;;
33104;SDS011;19476;51.448;6.674;2022-11-15T05:33:46;6.82;;;2.97;;
33104;SDS011;19476;51.448;6.674;2022-11-15T05:38:57;5.60;;;2.63;;
33104;SDS011;19476;51.448;6.674;2022-11-15T05:41:36;4.90;;;3.00;;
33104;SDS011;19476;51.448;6.674;2022-11-15T05:44:10;5.05;;;2.70;;
33104;SDS011;19476;51.448;6.674;2022-11-15T05:46:38;4.20;;;2.65;;
33104;SDS011;19476;51.448;6.674;2022-11-15T05:49:06;5.63;;;2.78;;
33104;SDS011;19476;51.448;6.674;2022-11-15T05:51:36;5.13;;;2.50;;
33104;SDS011;19476;51.448;6.674;2022-11-15T05:54:02;6.47;;;3.00;;
33104;SDS011;19476;51.448;6.674;2022-11-15T05:56:28;5.47;;;2.63;;
33104;SDS011;19476;51.448;6.674;2022-11-15T05:58:55;4.90;;;2.47;;
33104;SDS011;19476;51.448;6.674;2022-11-15T06:01:22;7.90;;;3.28;;
33104;SDS011;19476;51.448;6.674;2022-11-15T06:03:49;5.85;;;2.75;;
33104;SDS011;19476;51.448;6.674;2022-11-15T06:06:15;4.72;;;2.47;;
33104;SDS011;19476;51.448;6.674;2022-11-15T06:08:41;4.65;;;2.78;;
33104;SDS011;19476;51.448;6.674;2022-11-15T06:11:07;6.05;;;2.67;;
33104;SDS011;19476;51.448;6.674;2022-11-15T06:13:33;5.20;;;2.90;;
33104;SDS011;19476;51.448;6.674;2022-11-15T06:15:59;7.18;;;3.80;;
33104;SDS011;19476;51.448;6.674;2022-11-15T06:18:25;4.50;;;2.20;;
33104;SDS011;19476;51.448;6.674;2022-11-15T06:20:51;5.68;;;2.92;;
33104;SDS011;19476;51.448;6.674;2022-11-15T06:23:17;7.28;;;3.20;;
33104;SDS011;19476;51.448;6.674;2022-11-15T06:25:43;6.68;;;3.95;;
33104;SDS011;19476;51.448;6.674;2022-11-15T06:28:09;6.47;;;3.17;;
33104;SDS011;19476;51.448;6.674;2022-11-15T06:30:35;5.90;;;3.03;;
33104;SDS011;19476;51.448;6.674;2022-11-15T06:33:01;5.82;;;3.50;;
33104;SDS011;19476;51.448;6.674;2022-11-15T06:35:28;6.70;;;3.40;;
33104;SDS011;19476;51.448;6.674;2022-11-15T06:37:54;9.38;;;3.47;;
33104;SDS011;19476;51.448;6.674;2022-11-15T06:40:20;4.35;;;2.70;;
33104;SDS011;19476;51.448;6.674;2022-11-15T06:42:46;5.93;;;2.80;;
33104;SDS011;19476;51.448;6.674;2022-11-15T06:45:12;5.15;;;2.78;;
33104;SDS011;19476;51.448;6.674;2022-11-15T06:47:45;5.68;;;2.55;;
33104;SDS011;19476;51.448;6.674;2022-11-15T06:50:11;4.60;;;2.63;;
33104;SDS011;19476;51.448;6.674;2022-11-15T06:52:37;4.53;;;2.20;;
33104;SDS011;19476;51.448;6.674;2022-11-15T06:55:03;4.72;;;2.08;;
33104;SDS011;19476;51.448;6.674;2022-11-15T06:57:29;4.63;;;2.25;;
33104;SDS011;19476;51.448;6.674;2022-11-15T06:59:55;5.93;;;2.70;;
33104;SDS011;19476;51.448;6.674;2022-11-15T07:02:21;3.47;;;1.80;;
33104;SDS011;19476;51.448;6.674;2022-11-15T07:04:47;4.65;;;2.30;;
33104;SDS011;19476;51.448;6.674;2022-11-15T07:07:13;3.90;;;2.05;;
33104;SDS011;19476;51.448;6.674;2022-11-15T07:09:38;4.45;;;2.47;;
33104;SDS011;19476;51.448;6.674;2022-11-15T07:12:04;4.30;;;2.10;;
33104;SDS011;19476;51.448;6.674;2022-11-15T07:14:30;5.68;;;2.88;;
33104;SDS011;19476;51.448;6.674;2022-11-15T07:16:56;5.07;;;2.50;;
33104;SDS011;19476;51.448;6.674;2022-11-15T07:19:22;4.82;;;2.10;;
33104;SDS011;19476;51.448;6.674;2022-11-15T07:21:47;3.92;;;2.08;;
33104;SDS011;19476;51.448;6.674;2022-11-15T07:24:13;2.92;;;1.83;;
33104;SDS011;19476;51.448;6.674;2022-11-15T07:26:39;3.45;;;2.03;;
33104;SDS011;19476;51.448;6.674;2022-11-15T07:29:05;2.85;;;1.60;;
33104;SDS011;19476;51.448;6.674;2022-11-15T07:31:30;4.18;;;2.00;;
33104;SDS011;19476;51.448;6.674;2022-11-15T07:33:57;3.83;;;1.58;;
33104;SDS011;19476;51.448;6.674;2022-11-15T07:36:22;5.28;;;1.50;;
33104;SDS011;19476;51.448;6.674;2022-11-15T07:38:48;4.35;;;2.20;;
33104;SDS011;19476;51.448;6.674;2022-11-15T07:41:14;4.45;;;2.30;;
33104;SDS011;19476;51.448;6.674;2022-11-15T07:43:40;5.20;;;2.22;;
33104;SDS011;19476;51.448;6.674;2022-11-15T07:46:06;3.90;;;1.92;;
33104;SDS011;19476;51.448;6.674;2022-11-15T07:48:34;3.95;;;2.05;;
33104;SDS011;19476;51.448;6.674;2022-11-15T07:51:05;5.38;;;2.28;;
33104;SDS011;19476;51.448;6.674;2022-11-15T07:53:32;4.63;;;2.00;;
33104;SDS011;19476;51.448;6.674;2022-11-15T07:55:58;3.40;;;2.00;;
33104;SDS011;19476;51.448;6.674;2022-11-15T07:58:24;2.90;;;1.48;;
33104;SDS011;19476;51.448;6.674;2022-11-15T08:00:49;2.78;;;1.13;;
33104;SDS011;19476;51.448;6.674;2022-11-15T08:03:16;1.95;;;0.65;;
33104;SDS011;19476;51.448;6.674;2022-11-15T08:05:42;3.83;;;1.65;;
33104;SDS011;19476;51.448;6.674;2022-11-15T08:08:14;5.22;;;1.90;;
33104;SDS011;19476;51.448;6.674;2022-11-15T08:10:40;2.72;;;0.95;;
33104;SDS011;19476;51.448;6.674;2022-11-15T08:13:07;1.90;;;0.80;;
33104;SDS011;19476;51.448;6.674;2022-11-15T08:15:36;1.10;;;0.50;;
33104;SDS011;19476;51.448;6.674;2022-11-15T08:18:13;0.80;;;0.40;;
33104;SDS011;19476;51.448;6.674;2022-11-15T08:20:40;0.68;;;0.40;;
33104;SDS011;19476;51.448;6.674;2022-11-15T08:23:07;1.17;;;0.40;;
33104;SDS011;19476;51.448;6.674;2022-11-15T08:25:35;0.57;;;0.30;;
33104;SDS011;19476;51.448;6.674;2022-11-15T08:28:02;1.35;;;0.50;;
33104;SDS011;19476;51.448;6.674;2022-11-15T08:30:30;0.98;;;0.55;;
33104;SDS011;19476;51.448;6.674;2022-11-15T08:33:09;1.38;;;0.60;;
33104;SDS011;19476;51.448;6.674;2022-11-15T08:35:37;1.80;;;0.73;;
33104;SDS011;19476;51.448;6.674;2022-11-15T08:38:03;1.48;;;0.60;;
33104;SDS011;19476;51.448;6.674;2022-11-15T08:40:29;2.03;;;0.90;;
33104;SDS011;19476;51.448;6.674;2022-11-15T08:42:55;2.67;;;0.70;;
33104;SDS011;19476;51.448;6.674;2022-11-15T08:45:20;1.98;;;0.40;;
33104;SDS011;19476;51.448;6.674;2022-11-15T08:47:46;1.30;;;0.60;;
33104;SDS011;19476;51.448;6.674;2022-11-15T08:50:12;1.67;;;0.60;;
33104;SDS011;19476;51.448;6.674;2022-11-15T08:52:38;0.52;;;0.40;;
33104;SDS011;19476;51.448;6.674;2022-11-15T08:55:04;2.63;;;0.70;;
33104;SDS011;19476;51.448;6.674;2022-11-15T08:57:31;1.63;;;0.50;;
33104;SDS011;19476;51.448;6.674;2022-11-15T08:59:56;1.52;;;0.55;;
33104;SDS011;19476;51.448;6.674;2022-11-15T09:02:23;2.38;;;0.60;;
33104;SDS011;19476;51.448;6.674;2022-11-15T09:04:49;0.88;;;0.60;;
33104;SDS011;19476;51.448;6.674;2022-11-15T09:07:15;2.17;;;0.95;;
33104;SDS011;19476;51.448;6.674;2022-11-15T09:09:41;2.65;;;0.90;;
33104;SDS011;19476;51.448;6.674;2022-11-15T09:12:07;4.25;;;1.17;;
33104;SDS011;19476;51.448;6.674;2022-11-15T09:14:33;3.47;;;1.17;;
33104;SDS011;19476;51.448;6.674;2022-11-15T09:16:59;3.20;;;0.80;;
33104;SDS011;19476;51.448;6.674;2022-11-15T09:19:26;3.60;;;0.80;;
33104;SDS011;19476;51.448;6.674;2022-11-15T09:21:52;2.53;;;0.70;;
33104;SDS011;19476;51.448;6.674;2022-11-15T09:24:18;1.35;;;0.65;;
33104;SDS011;19476;51.448;6.674;2022-11-15T09:26:44;1.40;;;0.57;;
33104;SDS011;19476;51.448;6.674;2022-11-15T09:29:09;1.40;;;0.60;;
33104;SDS011;19476;51.448;6.674;2022-11-15T09:31:38;2.38;;;1.00;;
33104;SDS011;19476;51.448;6.674;2022-11-15T09:34:03;1.60;;;0.57;;
33104;SDS011;19476;51.448;6.674;2022-11-15T09:36:29;1.05;;;0.57;;
33104;SDS011;19476;51.448;6.674;2022-11-15T09:38:57;2.47;;;0.50;;
33104;SDS011;19476;51.448;6.674;2022-11-15T09:41:26;1.30;;;0.55;;
33104;SDS011;19476;51.448;6.674;2022-11-15T09:49:35;1.65;;;0.82;;
33104;SDS011;19476;51.448;6.674;2022-11-15T09:52:01;1.50;;;0.75;;
33104;SDS011;19476;51.448;6.674;2022-11-15T09:54:32;1.70;;;1.00;;
33104;SDS011;19476;51.448;6.674;2022-11-15T10:05:41;2.03;;;1.15;;
33104;SDS011;19476;51.448;6.674;2022-11-15T10:10:53;2.45;;;1.17;;
33104;SDS011;19476;51.448;6.674;2022-11-15T10:13:26;3.17;;;1.08;;
33104;SDS011;19476;51.448;6.674;2022-11-15T10:16:02;1.63;;;0.80;;
33104;SDS011;19476;51.448;6.674;2022-11-15T10:21:29;2.88;;;1.40;;
33104;SDS011;19476;51.448;6.674;2022-11-15T10:24:11;3.28;;;0.90;;
33104;SDS011;19476;51.448;6.674;2022-11-15T10:26:46;2.22;;;0.70;;
33104;SDS011;19476;51.448;6.674;2022-11-15T10:29:19;2.22;;;1.10;;
33104;SDS011;19476;51.448;6.674;2022-11-15T10:31:46;2.63;;;0.85;;
33104;SDS011;19476;51.448;6.674;2022-11-15T10:34:16;2.92;;;1.10;;
33104;SDS011;19476;51.448;6.674;2022-11-15T10:36:54;4.07;;;0.90;;
33104;SDS011;19476;51.448;6.674;2022-11-15T10:41:50;1.45;;;0.80;;
33104;SDS011;19476;51.448;6.674;2022-11-15T10:47:03;2.75;;;0.85;;
33104;SDS011;19476;51.448;6.674;2022-11-15T10:49:32;4.10;;;0.70;;
33104;SDS011;19476;51.448;6.674;2022-11-15T10:54:39;1.80;;;0.80;;
33104;SDS011;19476;51.448;6.674;2022-11-15T10:57:31;2.08;;;0.70;;
33104;SDS011;19476;51.448;6.674;2022-11-15T11:00:04;4.85;;;0.70;;
33104;SDS011;19476;51.448;6.674;2022-11-15T11:02:57;1.77;;;0.73;;
33104;SDS011;19476;51.448;6.674;2022-11-15T11:08:01;1.58;;;0.88;;
33104;SDS011;19476;51.448;6.674;2022-11-15T11:10:29;4.28;;;1.10;;
33104;SDS011;19476;51.448;6.674;2022-11-15T11:13:05;1.90;;;0.70;;
33104;SDS011;19476;51.448;6.674;2022-11-15T11:15:38;1.13;;;0.60;;
33104;SDS011;19476;51.448;6.674;2022-11-15T11:18:57;4.13;;;1.13;;
33104;SDS011;19476;51.448;6.674;2022-11-15T11:21:05;2.15;;;0.80;;
33104;SDS011;19476;51.448;6.674;2022-11-15T11:26:29;2.63;;;0.80;;
33104;SDS011;19476;51.448;6.674;2022-11-15T11:34:38;1.40;;;0.65;;
33104;SDS011;19476;51.448;6.674;2022-11-15T11:37:17;1.50;;;0.60;;
33104;SDS011;19476;51.448;6.674;2022-11-15T11:40:01;1.17;;;0.40;;
33104;SDS011;19476;51.448;6.674;2022-11-15T11:48:13;3.53;;;0.70;;
33104;SDS011;19476;51.448;6.674;2022-11-15T11:50:40;1.95;;;0.70;;
33104;SDS011;19476;51.448;6.674;2022-11-15T11:53:12;2.60;;;0.55;;
33104;SDS011;19476;51.448;6.674;2022-11-15T12:01:26;1.23;;;0.50;;
33104;SDS011;19476;51.448;6.674;2022-11-15T12:03:59;1.92;;;0.60;;
33104;SDS011;19476;51.448;6.674;2022-11-15T12:06:47;1.13;;;0.40;;
33104;SDS011;19476;51.448;6.674;2022-11-15T12:09:26;1.45;;;0.50;;
33104;SDS011;19476;51.448;6.674;2022-11-15T12:12:13;0.88;;;0.40;;
33104;SDS011;19476;51.448;6.674;2022-11-15T12:14:50;1.63;;;0.43;;
33104;SDS011;19476;51.448;6.674;2022-11-15T12:17:21;2.67;;;1.08;;
33104;SDS011;19476;51.448;6.674;2022-11-15T12:19:49;0.88;;;0.60;;
33104;SDS011;19476;51.448;6.674;2022-11-15T12:22:22;1.15;;;0.60;;
33104;SDS011;19476;51.448;6.674;2022-11-15T12:25:30;2.43;;;0.60;;
33104;SDS011;19476;51.448;6.674;2022-11-15T12:28:14;1.67;;;0.52;;
33104;SDS011;19476;51.448;6.674;2022-11-15T12:31:05;1.88;;;0.63;;
33104;SDS011;19476;51.448;6.674;2022-11-15T12:33:46;1.05;;;0.43;;
33104;SDS011;19476;51.448;6.674;2022-11-15T12:41:20;3.60;;;0.70;;
33104;SDS011;19476;51.448;6.674;2022-11-15T12:43:56;1.10;;;0.50;;
33104;SDS011;19476;51.448;6.674;2022-11-15T13:02:31;1.77;;;0.70;;
33104;SDS011;19476;51.448;6.674;2022-11-15T13:22:44;4.13;;;0.55;;
33104;SDS011;19476;51.448;6.674;2022-11-15T13:25:18;4.88;;;0.40;;
33104;SDS011;19476;51.448;6.674;2022-11-15T13:27:48;2.00;;;0.80;;
33104;SDS011;19476;51.448;6.674;2022-11-15T13:30:20;1.67;;;0.68;;
33104;SDS011;19476;51.448;6.674;2022-11-15T13:32:48;2.30;;;0.88;;
33104;SDS011;19476;51.448;6.674;2022-11-15T13:35:22;8.63;;;1.25;;
33104;SDS011;19476;51.448;6.674;2022-11-15T13:37:50;3.80;;;0.82;;
33104;SDS011;19476;51.448;6.674;2022-11-15T13:42:57;4.22;;;0.88;;
33104;SDS011;19476;51.448;6.674;2022-11-15T13:45:23;4.07;;;0.80;;
33104;SDS011;19476;51.448;6.674;2022-11-15T13:47:54;2.03;;;0.63;;
33104;SDS011;19476;51.448;6.674;2022-11-15T13:50:24;3.30;;;0.70;;
33104;SDS011;19476;51.448;6.674;2022-11-15T13:52:58;1.63;;;0.65;;
33104;SDS011;19476;51.448;6.674;2022-11-15T13:55:27;3.65;;;0.50;;
33104;SDS011;19476;51.448;6.674;2022-11-15T13:58:00;2.00;;;0.63;;
33104;SDS011;19476;51.448;6.674;2022-11-15T14:00:37;1.85;;;0.40;;
33104;SDS011;19476;51.448;6.674;2022-11-15T14:03:27;1.48;;;0.50;;
33104;SDS011;19476;51.448;6.674;2022-11-15T14:08:31;1.27;;;0.47;;
33104;SDS011;19476;51.448;6.674;2022-11-15T14:11:07;3.05;;;0.50;;
33104;SDS011;19476;51.448;6.674;2022-11-15T14:13:34;1.83;;;0.40;;
33104;SDS011;19476;51.448;6.674;2022-11-15T14:16:17;1.63;;;0.60;;
33104;SDS011;19476;51.448;6.674;2022-11-15T14:18:46;2.00;;;0.60;;
33104;SDS011;19476;51.448;6.674;2022-11-15T14:21:13;1.80;;;0.57;;
33104;SDS011;19476;51.448;6.674;2022-11-15T14:23:39;2.63;;;0.45;;
33104;SDS011;19476;51.448;6.674;2022-11-15T14:26:05;2.38;;;0.32;;
33104;SDS011;19476;51.448;6.674;2022-11-15T14:28:36;2.47;;;0.60;;
33104;SDS011;19476;51.448;6.674;2022-11-15T14:31:06;2.13;;;0.50;;
33104;SDS011;19476;51.448;6.674;2022-11-15T14:33:38;0.93;;;0.40;;
33104;SDS011;19476;51.448;6.674;2022-11-15T14:36:05;2.78;;;0.60;;
33104;SDS011;19476;51.448;6.674;2022-11-15T14:38:36;0.82;;;0.40;;
33104;SDS011;19476;51.448;6.674;2022-11-15T14:41:02;1.40;;;0.40;;
33104;SDS011;19476;51.448;6.674;2022-11-15T14:43:28;2.40;;;0.50;;
33104;SDS011;19476;51.448;6.674;2022-11-15T14:45:54;1.00;;;0.50;;
33104;SDS011;19476;51.448;6.674;2022-11-15T14:48:20;3.40;;;0.55;;
33104;SDS011;19476;51.448;6.674;2022-11-15T14:50:47;2.60;;;0.73;;
33104;SDS011;19476;51.448;6.674;2022-11-15T14:53:16;1.80;;;0.30;;
33104;SDS011;19476;51.448;6.674;2022-11-15T14:55:43;1.25;;;0.50;;
33104;SDS011;19476;51.448;6.674;2022-11-15T14:58:09;1.05;;;0.40;;
33104;SDS011;19476;51.448;6.674;2022-11-15T15:00:35;1.95;;;0.63;;
33104;SDS011;19476;51.448;6.674;2022-11-15T15:03:04;2.25;;;1.00;;
33104;SDS011;19476;51.448;6.674;2022-11-15T15:05:31;2.75;;;0.70;;
33104;SDS011;19476;51.448;6.674;2022-11-15T15:08:08;1.05;;;0.68;;
33104;SDS011;19476;51.448;6.674;2022-11-15T15:10:38;1.00;;;0.50;;
33104;SDS011;19476;51.448;6.674;2022-11-15T15:13:18;2.53;;;0.82;;
33104;SDS011;19476;51.448;6.674;2022-11-15T15:15:45;1.50;;;0.70;;
33104;SDS011;19476;51.448;6.674;2022-11-15T15:18:12;1.92;;;0.80;;
33104;SDS011;19476;51.448;6.674;2022-11-15T15:20:39;1.70;;;0.77;;
33104;SDS011;19476;51.448;6.674;2022-11-15T15:23:09;1.90;;;1.00;;
33104;SDS011;19476;51.448;6.674;2022-11-15T15:25:45;2.15;;;0.80;;
33104;SDS011;19476;51.448;6.674;2022-11-15T15:28:13;2.08;;;0.70;;
33104;SDS011;19476;51.448;6.674;2022-11-15T15:30:39;1.90;;;0.90;;
33104;SDS011;19476;51.448;6.674;2022-11-15T15:33:05;2.42;;;1.10;;
33104;SDS011;19476;51.448;6.674;2022-11-15T15:35:32;1.98;;;1.00;;
33104;SDS011;19476;51.448;6.674;2022-11-15T15:37:59;2.42;;;0.88;;
33104;SDS011;19476;51.448;6.674;2022-11-15T15:40:27;2.20;;;0.88;;
33104;SDS011;19476;51.448;6.674;2022-11-15T15:42:54;1.58;;;0.90;;
33104;SDS011;19476;51.448;6.674;2022-11-15T15:45:20;3.13;;;1.25;;
33104;SDS011;19476;51.448;6.674;2022-11-15T15:47:46;2.33;;;1.00;;
33104;SDS011;19476;51.448;6.674;2022-11-15T15:50:20;1.70;;;0.85;;
33104;SDS011;19476;51.448;6.674;2022-11-15T15:52:55;2.67;;;1.00;;
33104;SDS011;19476;51.448;6.674;2022-11-15T15:55:22;2.30;;;0.95;;
33104;SDS011;19476;51.448;6.674;2022-11-15T15:57:49;1.83;;;0.88;;
33104;SDS011;19476;51.448;6.674;2022-11-15T16:00:15;2.63;;;0.85;;
33104;SDS011;19476;51.448;6.674;2022-11-15T16:02:42;2.00;;;0.90;;
33104;SDS011;19476;51.448;6.674;2022-11-15T16:05:08;1.75;;;0.80;;
33104;SDS011;19476;51.448;6.674;2022-11-15T16:07:35;2.10;;;0.98;;
33104;SDS011;19476;51.448;6.674;2022-11-15T16:10:02;2.28;;;1.00;;
33104;SDS011;19476;51.448;6.674;2022-11-15T16:12:41;1.63;;;1.10;;
33104;SDS011;19476;51.448;6.674;2022-11-15T16:15:07;2.55;;;1.00;;
33104;SDS011;19476;51.448;6.674;2022-11-15T16:17:34;2.72;;;1.02;;
33104;SDS011;19476;51.448;6.674;2022-11-15T16:20:04;1.77;;;0.95;;
33104;SDS011;19476;51.448;6.674;2022-11-15T16:22:30;1.92;;;1.17;;
33104;SDS011;19476;51.448;6.674;2022-11-15T16:24:56;2.35;;;1.00;;
33104;SDS011;19476;51.448;6.674;2022-11-15T16:27:22;2.42;;;1.05;;
33104;SDS011;19476;51.448;6.674;2022-11-15T16:29:48;3.10;;;1.50;;
33104;SDS011;19476;51.448;6.674;2022-11-15T16:32:15;3.00;;;1.17;;
33104;SDS011;19476;51.448;6.674;2022-11-15T16:34:41;2.75;;;1.17;;
33104;SDS011;19476;51.448;6.674;2022-11-15T16:37:23;3.92;;;1.08;;
33104;SDS011;19476;51.448;6.674;2022-11-15T16:39:49;1.63;;;1.00;;
33104;SDS011;19476;51.448;6.674;2022-11-15T16:42:15;2.65;;;1.00;;
33104;SDS011;19476;51.448;6.674;2022-11-15T16:44:41;1.73;;;1.00;;
33104;SDS011;19476;51.448;6.674;2022-11-15T16:47:25;2.03;;;1.10;;
33104;SDS011;19476;51.448;6.674;2022-11-15T16:49:51;2.08;;;0.98;;
33104;SDS011;19476;51.448;6.674;2022-11-15T16:52:17;1.80;;;0.75;;
33104;SDS011;19476;51.448;6.674;2022-11-15T16:54:42;2.20;;;0.90;;
33104;SDS011;19476;51.448;6.674;2022-11-15T16:57:09;1.55;;;1.00;;
33104;SDS011;19476;51.448;6.674;2022-11-15T16:59:36;1.70;;;0.90;;
33104;SDS011;19476;51.448;6.674;2022-11-15T17:02:01;2.55;;;1.20;;
33104;SDS011;19476;51.448;6.674;2022-11-15T17:04:27;2.05;;;1.13;;
33104;SDS011;19476;51.448;6.674;2022-11-15T17:09:23;2.05;;;0.77;;
33104;SDS011;19476;51.448;6.674;2022-11-15T17:11:49;3.30;;;0.90;;
33104;SDS011;19476;51.448;6.674;2022-11-15T17:14:16;2.17;;;1.17;;
33104;SDS011;19476;51.448;6.674;2022-11-15T17:16:43;6.95;;;1.65;;
33104;SDS011;19476;51.448;6.674;2022-11-15T17:19:12;2.83;;;1.00;;
33104;SDS011;19476;51.448;6.674;2022-11-15T17:21:43;2.53;;;1.10;;
33104;SDS011;19476;51.448;6.674;2022-11-15T17:24:10;3.78;;;1.10;;
33104;SDS011;19476;51.448;6.674;2022-11-15T17:26:36;2.05;;;0.90;;